LiveATC.Net - Listen to live air traffic control over the Internet!


ICAO: KLBB  IATA: LBB   Airport: Lubbock Preston Smith International Airport
City: Lubbock   State/Province: Texas
Country: United States   Continent: North America
KLBB METAR Weather: KLBB 171053Z 24009KT 10SM CLR 02/M04 A2997 RMK AO2 SLP131 T00171039
KLBB Flight Activity (FlightAware)
KLBB Airport Info   (AirNav) (iFlightPlanner)
KLBB VFR Sectional Chart   (iFlightPlanner) 
KLBB IFR Low Chart   (iFlightPlanner) 

KLBB Gnd/Twr/App
Feed Status: DOWN
Last heard on: 2018-11-15 15:07:03 (1 days 20 hours 40 minutes ago)
KLBB Gnd/Twr/App Audio Archives
FacilityFrequency
Emergency/Guard121.500
Hub City Aviation123.500
Lubbock Approach/Departure119.200
Lubbock Ground121.900
Lubbock Tower120.500
Feed sponsored by: Hub City Aviation

NOTICE

Unauthorized use prohibited. See LiveATC.net Terms of Service


Find LiveATC Audio Streams


Airport/ARTCC Code

Frequency Search
(e.g., 124.400, 128.75)
Site-wide search
 


Browse LiveATC Feeds
Top 50 LiveATC Feeds
Bad Weather Areas

LiveATC FAQ
Offer a LiveATC Feed
Contact LiveATC.net
Press Inquiries

LiveATC on iPhone
LiveATC on Android

Windows Phone
Windows 8/10

LiveATC Mobile
(Mobile browser)

ATC Audio Archives
Interesting Recordings

LiveATC Forums


Home Page
About LiveATC.net
Make a Donation
Terms of Use
Privacy Policy

Canadian Air Freqs

AIRMETs/SIGMETs

FAA Airport Status
Nat'l Airspace Status
Arrival Demand Charts


Server Software By:
Icecast.org
Liquidsoap